Time;durP1;ratioP1;P1;durP2;ratioP2;P2;SDS_P1;SDS_P2;PMS_P1;PMS_P2;Temp;Humidity;BMP_temperature;BMP_pressure;BME280_temperature;BME280_humidity;BME280_pressure;Samples;Min_cycle;Max_cycle;Signal;HPM_P1;HPM_P2
2023/02/18 09:36:19;;;;;;;13.68;10.13;;;11.90;99.90;;;;;;5117505;27;20371;-84
2023/02/18 09:39:02;;;;;;;12.60;10.00;;;11.90;99.90;;;;;;5095465;28;20504;-85
2023/02/18 09:42:03;;;;;;;15.15;9.93;;;11.90;99.90;;;;;;5095954;28;20055;-83
2023/02/18 09:45:10;;;;;;;11.75;9.07;;;11.90;99.90;;;;;;5085643;28;20263;-86
2023/02/18 09:48:00;;;;;;;12.27;9.30;;;11.90;99.90;;;;;;5034121;28;20022;-86
2023/02/18 09:51:03;;;;;;;16.98;10.48;;;11.90;99.90;;;;;;5018772;28;20034;-87
2023/02/18 09:54:13;;;;;;;13.20;10.00;;;12.00;99.90;;;;;;5019138;28;20022;-82
2023/02/18 09:57:47;;;;;;;12.93;9.50;;;11.90;99.90;;;;;;5066874;28;20060;-86
2023/02/18 10:00:38;;;;;;;11.98;8.77;;;11.90;99.90;;;;;;5013912;28;20097;-84
2023/02/18 10:17:42;;;;;;;10.18;7.30;;;12.00;99.90;;;;;;5013773;28;20513;-88
2023/02/18 10:20:29;;;;;;;10.50;7.78;;;12.00;99.90;;;;;;5013997;28;20034;-86
2023/02/18 10:22:57;;;;;;;11.88;7.93;;;12.10;99.90;;;;;;5014425;28;20026;-85
2023/02/18 10:25:27;;;;;;;10.02;7.75;;;11.90;99.90;;;;;;5014285;28;20050;-84
2023/02/18 10:27:53;;;;;;;10.02;7.90;;;11.80;99.90;;;;;;5069847;28;20132;-87
2023/02/18 10:30:27;;;;;;;11.20;7.95;;;11.80;99.90;;;;;;5075653;28;20462;-86
2023/02/18 10:33:17;;;;;;;9.02;6.93;;;11.80;99.90;;;;;;5076508;28;20366;-85
2023/02/18 10:36:26;;;;;;;10.27;7.70;;;11.80;99.90;;;;;;5071348;28;20029;-88
2023/02/18 10:39:17;;;;;;;10.65;7.07;;;11.80;99.90;;;;;;5032213;28;20124;-87
2023/02/18 10:42:13;;;;;;;11.18;7.60;;;11.90;99.90;;;;;;5071092;28;20039;-84
2023/02/18 10:44:42;;;;;;;12.20;7.05;;;11.90;99.90;;;;;;5072296;28;20017;-87
2023/02/18 10:47:38;;;;;;;9.38;7.18;;;11.80;99.90;;;;;;5062604;28;20031;-87
2023/02/18 10:53:18;;;;;;;9.90;7.18;;;12.00;99.90;;;;;;5032235;28;20852;-84
2023/02/18 10:55:59;;;;;;;11.90;7.78;;;12.10;99.90;;;;;;5010683;28;20046;-85
2023/02/18 11:02:51;;;;;;;9.13;6.30;;;12.20;99.90;;;;;;5014258;28;20111;-89
2023/02/18 11:05:40;;;;;;;9.40;6.20;;;12.20;99.90;;;;;;4993958;28;20266;-85
2023/02/18 11:08:14;;;;;;;7.47;5.70;;;12.20;99.90;;;;;;4986870;28;20294;-87
2023/02/18 11:10:43;;;;;;;8.43;5.78;;;12.10;99.90;;;;;;4995383;28;20611;-88
2023/02/18 11:13:13;;;;;;;10.75;5.35;;;12.00;99.90;;;;;;5010821;28;20021;-87
2023/02/18 11:16:06;;;;;;;7.43;5.90;;;12.00;99.90;;;;;;5009646;28;20053;-85
2023/02/18 11:18:37;;;;;;;7.13;5.75;;;12.00;99.90;;;;;;5011117;28;20029;-85
2023/02/18 11:21:25;;;;;;;13.57;6.90;;;12.00;99.90;;;;;;5008609;28;20050;-86
2023/02/18 11:23:54;;;;;;;19.05;10.18;;;12.40;99.90;;;;;;5010934;28;20075;-83
2023/02/18 11:26:32;;;;;;;7.85;5.28;;;12.00;99.90;;;;;;5024216;28;20026;-86
2023/02/18 11:29:21;;;;;;;11.02;7.43;;;12.20;99.90;;;;;;5012592;28;20036;-86
2023/02/18 11:31:50;;;;;;;9.13;6.00;;;12.10;99.90;;;;;;5008630;28;20056;-84
2023/02/18 11:34:29;;;;;;;8.85;5.68;;;12.10;99.90;;;;;;5025861;28;20026;-85
2023/02/18 11:36:55;;;;;;;9.15;5.07;;;;;;;;;;5008416;28;20029;-85
2023/02/18 11:39:27;;;;;;;7.35;5.32;;;12.40;99.90;;;;;;5015202;28;20433;-84
2023/02/18 11:42:00;;;;;;;8.18;5.35;;;12.40;99.90;;;;;;5017092;28;20026;-85
2023/02/18 11:44:29;;;;;;;8.20;5.43;;;;;;;;;;5010463;28;20057;-84
2023/02/18 11:47:13;;;;;;;7.90;5.05;;;12.30;99.90;;;;;;5028621;28;20071;-87
2023/02/18 11:49:42;;;;;;;6.32;4.45;;;12.30;99.90;;;;;;5018719;28;20029;-83
2023/02/18 11:52:17;;;;;;;6.63;4.93;;;;;;;;;;5021851;28;20042;-86
2023/02/18 11:55:17;;;;;;;7.00;4.78;;;12.30;99.90;;;;;;5041105;28;20030;-84
2023/02/18 11:57:49;;;;;;;7.15;4.55;;;12.50;99.90;;;;;;5009649;28;20049;-83
2023/02/18 12:00:21;;;;;;;7.40;4.70;;;;;;;;;;5005713;28;20267;-86
2023/02/18 12:02:47;;;;;;;8.05;4.55;;;;;;;;;;5012966;28;20049;-85
2023/02/18 12:05:21;;;;;;;7.10;4.25;;;12.80;99.90;;;;;;5011778;28;20026;-85
2023/02/18 12:07:54;;;;;;;7.97;4.80;;;12.70;99.90;;;;;;5026252;28;20486;-83
2023/02/18 12:10:53;;;;;;;10.02;5.18;;;12.70;99.90;;;;;;5042865;28;20121;-83
2023/02/18 12:13:35;;;;;;;8.52;4.90;;;12.70;99.90;;;;;;5016507;28;20026;-85
2023/02/18 12:16:10;;;;;;;7.68;4.93;;;12.70;99.90;;;;;;5011332;28;20026;-83
2023/02/18 12:18:47;;;;;;;6.40;4.50;;;12.70;99.90;;;;;;5027038;28;20034;-83
2023/02/18 12:21:31;;;;;;;9.23;4.43;;;12.70;99.90;;;;;;5027691;28;20097;-81
2023/02/18 12:24:17;;;;;;;9.68;4.78;;;12.80;99.90;;;;;;5030296;28;20484;-83
2023/02/18 12:27:12;;;;;;;6.75;4.43;;;13.00;99.90;;;;;;5014175;28;20022;-83
2023/02/18 12:30:11;;;;;;;5.80;4.03;;;12.90;99.90;;;;;;5012130;28;20060;-83
2023/02/18 12:32:56;;;;;;;7.60;3.90;;;;;;;;;;5034878;28;20064;-85
2023/02/18 12:35:47;;;;;;;6.18;4.00;;;13.00;99.90;;;;;;5009030;28;20473;-85
2023/02/18 12:38:44;;;;;;;5.70;3.85;;;13.00;99.90;;;;;;5014583;28;20537;-82
2023/02/18 12:41:10;;;;;;;7.88;3.42;;;;;;;;;;5004985;28;20119;-84
2023/02/18 12:43:42;;;;;;;9.52;3.60;;;;;;;;;;5039207;28;20026;-83
2023/02/18 12:46:37;;;;;;;5.53;3.20;;;13.10;99.90;;;;;;5010298;28;20056;-82
2023/02/18 12:49:50;;;;;;;8.27;3.60;;;13.10;99.90;;;;;;5034618;28;20064;-82
2023/02/18 12:52:35;;;;;;;4.30;3.13;;;13.00;99.90;;;;;;5027229;28;20044;-84
2023/02/18 12:55:21;;;;;;;6.57;3.47;;;12.90;99.90;;;;;;5024663;28;20037;-84
2023/02/18 12:57:55;;;;;;;8.60;4.63;;;12.80;99.90;;;;;;5037085;28;20025;-85
2023/02/18 13:00:27;;;;;;;8.00;3.60;;;;;;;;;;5031437;28;20044;-84
2023/02/18 13:03:25;;;;;;;5.38;3.30;;;12.80;99.90;;;;;;5020926;28;20073;-86
2023/02/18 13:05:53;;;;;;;9.52;3.95;;;12.80;99.90;;;;;;5009122;28;20092;-86
2023/02/18 13:08:40;;;;;;;6.45;3.75;;;12.70;99.90;;;;;;5032303;28;20026;-86
2023/02/18 13:11:41;;;;;;;8.30;4.28;;;12.70;99.90;;;;;;5016059;28;20038;-86
2023/02/18 13:14:17;;;;;;;6.20;4.13;;;12.80;99.90;;;;;;5004010;28;20625;-85
2023/02/18 13:16:47;;;;;;;7.63;4.45;;;12.90;99.90;;;;;;5010849;28;20143;-87
2023/02/18 13:19:25;;;;;;;6.95;3.83;;;12.80;99.90;;;;;;5006430;28;20037;-87
2023/02/18 13:21:58;;;;;;;6.35;4.00;;;12.80;99.90;;;;;;5042332;28;20076;-87
2023/02/18 13:24:34;;;;;;;6.65;4.43;;;12.80;99.90;;;;;;5008807;28;20593;-85
2023/02/18 13:27:26;;;;;;;9.55;4.68;;;12.70;99.90;;;;;;5020073;28;20061;-85
2023/02/18 13:30:16;;;;;;;6.65;4.43;;;12.60;99.90;;;;;;5009737;28;20085;-87
2023/02/18 13:32:52;;;;;;;7.00;4.15;;;12.60;99.90;;;;;;5008262;28;20368;-84
2023/02/18 13:35:39;;;;;;;7.90;4.53;;;12.60;99.90;;;;;;5017758;28;20045;-85
2023/02/18 13:38:31;;;;;;;6.72;4.82;;;12.40;99.90;;;;;;5015818;28;20031;-86
2023/02/18 13:40:58;;;;;;;6.80;5.20;;;12.40;99.90;;;;;;5021159;28;20025;-85
2023/02/18 13:43:27;;;;;;;6.75;4.00;;;12.30;99.90;;;;;;5000317;28;20038;-85
2023/02/18 13:46:09;;;;;;;7.35;4.57;;;12.40;99.90;;;;;;5013100;28;20061;-87
2023/02/18 13:48:39;;;;;;;6.10;4.05;;;12.40;99.90;;;;;;5010444;28;20026;-83
2023/02/18 13:51:05;;;;;;;6.93;4.57;;;12.10;99.90;;;;;;5024680;28;20405;-86
2023/02/18 13:53:36;;;;;;;5.97;4.72;;;12.50;99.90;;;;;;5006377;28;20322;-86
2023/02/18 13:56:03;;;;;;;;;;;12.50;99.90;;;;;;5027240;28;20033;-83
2023/02/18 13:58:48;;;;;;;8.65;4.88;;;12.50;99.90;;;;;;5039755;28;20096;-83
2023/02/18 14:01:32;;;;;;;9.38;4.35;;;12.40;99.90;;;;;;5008229;28;20042;-84
2023/02/18 14:03:59;;;;;;;6.28;4.45;;;12.50;99.90;;;;;;5007029;28;20023;-84
2023/02/18 14:06:32;;;;;;;7.93;4.65;;;12.40;99.90;;;;;;5019859;28;20037;-85
2023/02/18 14:09:23;;;;;;;6.93;4.63;;;12.40;99.90;;;;;;5014188;28;20408;-84
2023/02/18 14:12:14;;;;;;;7.40;4.72;;;12.30;99.90;;;;;;5009811;28;20080;-84
2023/02/18 14:14:40;;;;;;;7.07;4.43;;;12.20;99.90;;;;;;5021353;28;20492;-83
2023/02/18 14:17:12;;;;;;;7.00;4.55;;;12.30;99.90;;;;;;5012626;28;20026;-83
2023/02/18 14:19:37;;;;;;;8.90;5.10;;;12.20;99.90;;;;;;5016149;28;20044;-82
2023/02/18 14:22:30;;;;;;;7.82;5.00;;;12.10;99.90;;;;;;5017642;28;20026;-81
2023/02/18 14:25:02;;;;;;;7.25;4.88;;;12.20;99.90;;;;;;5038586;28;20073;-85
2023/02/18 14:27:28;;;;;;;7.90;4.90;;;12.20;99.90;;;;;;5011351;28;20033;-85
2023/02/18 14:29:54;;;;;;;9.07;5.40;;;12.20;99.90;;;;;;5014434;28;20509;-86
2023/02/18 14:32:20;;;;;;;8.63;5.22;;;;;;;;;;5022451;28;20505;-83
2023/02/18 14:34:59;;;;;;;7.55;4.72;;;12.10;99.90;;;;;;5008354;28;20112;-86
2023/02/18 14:37:56;;;;;;;8.52;4.82;;;12.10;99.90;;;;;;5017375;28;20022;-82
2023/02/18 14:41:06;;;;;;;8.50;4.60;;;12.10;99.90;;;;;;5030347;28;20089;-85
2023/02/18 14:44:10;;;;;;;6.00;4.43;;;12.20;99.90;;;;;;5048728;28;20055;-87
2023/02/18 14:46:57;;;;;;;6.75;4.55;;;12.20;99.90;;;;;;5012839;28;20029;-83
2023/02/18 14:49:35;;;;;;;9.15;4.35;;;12.20;99.90;;;;;;5018014;28;20026;-85
2023/02/18 14:52:02;;;;;;;7.57;4.75;;;12.20;99.90;;;;;;5001129;28;20069;-86
2023/02/18 14:54:29;;;;;;;14.00;5.10;;;12.10;99.90;;;;;;5027694;28;20038;-81
2023/02/18 14:57:00;;;;;;;10.25;6.22;;;12.10;99.90;;;;;;5013476;28;20049;-84
2023/02/18 14:59:29;;;;;;;6.47;4.95;;;10.80;99.90;;;;;;5012189;28;20041;-81
2023/02/18 15:01:56;;;;;;;8.82;5.45;;;12.10;99.90;;;;;;5028960;28;20044;-85
2023/02/18 15:04:23;;;;;;;8.25;5.38;;;12.20;99.90;;;;;;5015426;28;20036;-82
2023/02/18 15:07:03;;;;;;;8.73;5.53;;;12.20;99.90;;;;;;5008159;28;20030;-78
2023/02/18 15:09:29;;;;;;;9.10;5.22;;;12.20;99.90;;;;;;5008460;28;20029;-85
2023/02/18 15:12:05;;;;;;;8.90;5.43;;;12.20;99.90;;;;;;5043116;28;20050;-83
2023/02/18 15:14:37;;;;;;;11.57;5.20;;;12.00;99.90;;;;;;5013159;28;20036;-82
2023/02/18 15:17:05;;;;;;;7.10;5.35;;;12.10;99.90;;;;;;5007163;28;20441;-84
2023/02/18 15:19:42;;;;;;;7.97;5.43;;;12.00;99.90;;;;;;5010380;28;20034;-86
2023/02/18 15:22:23;;;;;;;9.25;6.13;;;12.00;99.90;;;;;;5032764;28;20116;-80
2023/02/18 15:24:50;;;;;;;;;;;11.90;99.90;;;;;;5014411;28;20034;-83
2023/02/18 15:27:18;;;;;;;9.60;5.63;;;11.80;99.90;;;;;;5033242;28;19909;-84
2023/02/18 15:29:43;;;;;;;7.90;5.72;;;11.80;99.90;;;;;;5010348;28;20026;-80
2023/02/18 15:32:21;;;;;;;9.55;6.80;;;11.80;99.90;;;;;;5016093;28;20031;-82
2023/02/18 15:34:52;;;;;;;10.93;7.40;;;11.80;99.90;;;;;;5012390;28;20026;-85
2023/02/18 15:37:18;;;;;;;11.75;6.93;;;11.80;99.90;;;;;;5029569;28;20826;-81
2023/02/18 15:39:46;;;;;;;10.85;6.75;;;11.70;99.90;;;;;;5004870;28;20544;-81
2023/02/18 15:42:24;;;;;;;9.88;6.68;;;;;;;;;;5011564;28;20203;-82
2023/02/18 15:44:55;;;;;;;11.05;7.15;;;11.60;99.90;;;;;;5014678;28;20030;-80
2023/02/18 15:47:22;;;;;;;11.55;7.05;;;11.50;99.90;;;;;;5019888;28;20053;-84
2023/02/18 15:49:54;;;;;;;12.02;6.65;;;11.60;99.90;;;;;;5011749;28;20034;-85
2023/02/18 15:52:29;;;;;;;8.52;5.93;;;11.70;99.90;;;;;;5017565;28;20491;-83
2023/02/18 15:55:03;;;;;;;9.38;6.03;;;11.70;99.90;;;;;;5016092;28;20048;-81
2023/02/18 15:57:29;;;;;;;10.68;6.32;;;11.80;99.90;;;;;;5010027;28;20044;-82
2023/02/18 16:00:03;;;;;;;7.68;5.68;;;11.60;99.90;;;;;;5026832;28;20064;-84
2023/02/18 16:02:31;;;;;;;9.77;5.50;;;11.70;99.90;;;;;;5007005;28;20139;-81
2023/02/18 16:04:59;;;;;;;8.95;5.65;;;11.70;99.90;;;;;;5034542;28;20041;-81
2023/02/18 16:07:29;;;;;;;9.50;5.60;;;11.70;99.90;;;;;;5008626;28;20061;-81
2023/02/18 16:10:19;;;;;;;12.30;6.97;;;11.70;99.90;;;;;;5019411;28;20057;-81
2023/02/18 16:12:49;;;;;;;7.90;5.15;;;11.60;99.90;;;;;;5027469;28;20041;-82
2023/02/18 16:15:28;;;;;;;10.00;5.88;;;12.20;99.90;;;;;;5002131;28;20029;-79
2023/02/18 16:17:54;;;;;;;8.57;4.72;;;11.80;99.90;;;;;;5006327;28;20157;-80
2023/02/18 16:20:35;;;;;;;7.13;4.63;;;11.90;99.90;;;;;;5022472;28;20038;-80
2023/02/18 16:23:09;;;;;;;10.68;6.00;;;11.90;99.90;;;;;;5018056;28;20022;-81
2023/02/18 16:25:47;;;;;;;6.80;4.55;;;11.80;99.90;;;;;;5002747;28;20534;-80
2023/02/18 16:28:32;;;;;;;11.75;6.30;;;11.70;99.90;;;;;;4997263;28;20037;-83
2023/02/18 16:30:58;;;;;;;7.93;4.43;;;;;;;;;;5016316;28;20045;-81
2023/02/18 16:33:24;;;;;;;10.95;5.40;;;11.70;99.90;;;;;;5020885;28;20042;-82
2023/02/18 16:35:49;;;;;;;7.68;4.25;;;11.70;99.90;;;;;;5041206;28;20046;-84
2023/02/18 16:38:21;;;;;;;7.63;4.90;;;11.60;99.90;;;;;;5012064;28;20045;-83
2023/02/18 16:40:47;;;;;;;10.50;4.88;;;11.60;99.90;;;;;;5024446;28;20034;-81
2023/02/18 16:43:17;;;;;;;8.50;4.53;;;11.70;99.90;;;;;;4997647;28;20026;-83
2023/02/18 16:45:52;;;;;;;6.90;4.20;;;11.70;99.90;;;;;;5020299;28;20104;-85
2023/02/18 16:48:27;;;;;;;9.60;4.47;;;11.60;99.90;;;;;;5012893;28;20068;-84
2023/02/18 16:50:53;;;;;;;9.35;4.93;;;11.60;99.90;;;;;;5026412;28;20034;-82
2023/02/18 16:53:19;;;;;;;10.88;5.72;;;;;;;;;;5001900;28;20410;-85
2023/02/18 16:55:45;;;;;;;9.52;5.55;;;11.70;99.90;;;;;;5005375;28;20030;-80
2023/02/18 16:58:11;;;;;;;9.07;5.63;;;11.70;99.90;;;;;;5001391;28;20037;-84
2023/02/18 17:00:37;;;;;;;13.45;5.97;;;;;;;;;;5003906;28;20034;-82
2023/02/18 17:03:04;;;;;;;10.02;5.43;;;11.50;99.90;;;;;;5007730;28;20033;-84
2023/02/18 17:05:38;;;;;;;9.27;5.75;;;11.50;99.90;;;;;;5006868;28;20550;-82
2023/02/18 17:08:21;;;;;;;8.65;5.57;;;11.50;99.90;;;;;;5003973;28;20040;-81
2023/02/18 17:10:49;;;;;;;8.88;5.43;;;11.60;99.90;;;;;;5001029;28;20161;-83
2023/02/18 17:13:21;;;;;;;8.73;4.22;;;11.70;99.90;;;;;;5019159;28;20034;-82
2023/02/18 17:15:51;;;;;;;9.50;5.35;;;11.60;99.90;;;;;;5002899;28;20466;-82
2023/02/18 17:18:17;;;;;;;6.68;5.03;;;;;;;;;;5012460;28;20018;-82
2023/02/18 17:20:43;;;;;;;10.05;6.10;;;;;;;;;;5028769;28;20116;-80
2023/02/18 17:23:20;;;;;;;8.73;5.90;;;11.50;99.90;;;;;;5021822;28;20033;-82
2023/02/18 17:25:47;;;;;;;12.20;6.78;;;11.50;99.90;;;;;;5024109;28;20557;-83
2023/02/18 17:28:15;;;;;;;11.48;6.15;;;;;;;;;;5026379;28;20056;-79
2023/02/18 17:30:41;;;;;;;9.85;5.72;;;11.40;99.90;;;;;;5017547;28;20398;-81
2023/02/18 17:33:13;;;;;;;9.02;5.93;;;11.40;99.90;;;;;;5016199;28;20074;-81
2023/02/18 17:35:39;;;;;;;12.80;6.53;;;11.40;99.90;;;;;;5004417;28;20034;-80
2023/02/18 17:38:14;;;;;;;12.73;5.97;;;11.30;99.90;;;;;;5010999;28;20463;-80
2023/02/18 17:40:40;;;;;;;10.45;5.55;;;11.50;99.90;;;;;;5002277;28;20028;-84
2023/02/18 17:43:09;;;;;;;8.48;5.00;;;11.60;99.90;;;;;;5006844;28;20026;-84
2023/02/18 17:45:42;;;;;;;9.35;4.95;;;11.50;99.90;;;;;;5023497;28;20589;-78
2023/02/18 17:48:08;;;;;;;8.85;5.68;;;11.40;99.90;;;;;;5007842;28;20033;-85
2023/02/18 17:50:34;;;;;;;11.88;6.30;;;11.40;99.90;;;;;;5009035;28;20373;-82
2023/02/18 17:53:00;;;;;;;9.52;5.65;;;11.60;99.90;;;;;;5005191;28;20065;-83
2023/02/18 17:55:30;;;;;;;9.73;4.82;;;11.40;99.90;;;;;;5007529;28;20037;-82
2023/02/18 17:57:56;;;;;;;8.00;4.53;;;11.20;99.90;;;;;;5018699;28;20056;-84
2023/02/18 18:00:31;;;;;;;7.90;4.35;;;11.30;99.90;;;;;;5011898;28;20033;-83
2023/02/18 18:02:57;;;;;;;7.57;4.20;;;11.20;99.90;;;;;;5022813;28;20125;-85
2023/02/18 18:05:30;;;;;;;8.98;4.70;;;11.20;99.90;;;;;;5011273;28;20042;-82
2023/02/18 18:07:56;;;;;;;10.45;5.82;;;11.40;99.90;;;;;;5043738;28;20037;-80
2023/02/18 18:10:29;;;;;;;7.10;4.15;;;11.40;99.90;;;;;;5010863;28;20053;-82
2023/02/18 18:12:59;;;;;;;11.88;5.43;;;11.30;99.90;;;;;;5011816;28;20125;-86
2023/02/18 18:15:29;;;;;;;9.05;4.53;;;11.30;99.90;;;;;;5019256;28;20046;-80
2023/02/18 18:17:55;;;;;;;14.63;5.63;;;11.30;99.90;;;;;;5011835;28;20057;-81
2023/02/18 18:20:22;;;;;;;11.70;5.95;;;11.30;99.90;;;;;;5022645;28;20034;-85
2023/02/18 18:22:48;;;;;;;8.00;4.80;;;11.20;99.90;;;;;;5025272;28;20041;-85
2023/02/18 18:25:33;;;;;;;9.38;4.50;;;11.40;99.90;;;;;;5012211;28;20045;-86
2023/02/18 18:27:59;;;;;;;11.68;5.18;;;11.40;99.90;;;;;;5022841;28;20508;-86
2023/02/18 18:30:33;;;;;;;12.10;5.25;;;11.80;99.90;;;;;;5006765;28;20106;-83
2023/02/18 18:32:59;;;;;;;8.38;4.45;;;11.50;99.90;;;;;;5035661;28;20049;-84
2023/02/18 18:35:30;;;;;;;8.13;4.32;;;11.40;99.90;;;;;;5028322;28;20025;-85
2023/02/18 18:37:57;;;;;;;8.95;4.00;;;11.40;99.90;;;;;;5037877;28;20034;-83
2023/02/18 18:40:25;;;;;;;7.00;4.32;;;11.30;99.90;;;;;;5016530;28;20073;-86
2023/02/18 18:42:51;;;;;;;16.17;5.65;;;11.30;99.90;;;;;;5025386;28;20232;-83
2023/02/18 18:45:30;;;;;;;9.52;5.47;;;11.20;99.90;;;;;;5021767;28;20088;-85
2023/02/18 18:47:57;;;;;;;7.13;4.57;;;11.20;99.90;;;;;;5033467;28;20021;-84
2023/02/18 18:50:23;;;;;;;6.28;4.38;;;11.20;99.90;;;;;;5021773;28;20507;-82
2023/02/18 18:52:51;;;;;;;8.95;4.78;;;11.10;99.90;;;;;;5019792;28;20030;-84
2023/02/18 18:55:30;;;;;;;10.55;5.00;;;11.10;99.90;;;;;;5038855;28;20034;-86
2023/02/18 18:57:57;;;;;;;10.77;5.68;;;11.10;99.90;;;;;;5019539;28;20040;-84
2023/02/18 19:00:34;;;;;;;11.13;5.68;;;11.50;99.90;;;;;;5019499;28;20048;-85
2023/02/18 19:03:04;;;;;;;10.57;5.65;;;11.10;99.90;;;;;;5018960;28;20026;-84
2023/02/18 19:05:35;;;;;;;4.80;3.88;;;11.10;99.90;;;;;;5039638;28;20387;-85
2023/02/18 19:08:03;;;;;;;8.05;3.95;;;11.30;99.90;;;;;;5036079;28;20022;-85
2023/02/18 19:10:32;;;;;;;6.43;3.80;;;11.20;99.90;;;;;;5023494;28;20072;-85
2023/02/18 19:13:19;;;;;;;8.50;4.25;;;11.10;99.90;;;;;;5014752;28;20030;-85
2023/02/18 19:15:45;;;;;;;8.13;4.60;;;11.10;99.90;;;;;;5042373;28;20088;-83
2023/02/18 19:18:16;;;;;;;15.90;7.30;;;11.20;99.90;;;;;;5019465;28;20057;-85
2023/02/18 19:20:42;;;;;;;8.65;5.13;;;;;;;;;;5019700;28;20057;-85
2023/02/18 19:23:08;;;;;;;13.98;7.32;;;11.10;99.90;;;;;;5036571;28;20033;-84
2023/02/18 19:25:34;;;;;;;15.45;7.63;;;11.10;99.90;;;;;;5042849;28;20056;-86
2023/02/18 19:28:01;;;;;;;13.77;6.50;;;11.00;99.90;;;;;;5018493;28;20117;-85
2023/02/18 19:30:30;;;;;;;14.48;6.70;;;11.10;99.90;;;;;;5021784;28;20414;-85
2023/02/18 19:32:58;;;;;;;16.17;7.00;;;11.00;99.90;;;;;;5023552;28;20037;-85
2023/02/18 19:35:25;;;;;;;10.48;6.18;;;11.10;99.90;;;;;;5023165;28;20560;-85
2023/02/18 19:37:51;;;;;;;10.80;5.90;;;11.10;99.90;;;;;;5024859;28;20057;-85
2023/02/18 19:40:19;;;;;;;6.75;4.75;;;11.00;99.90;;;;;;5019650;28;20030;-85
2023/02/18 19:42:45;;;;;;;12.50;5.60;;;11.00;99.90;;;;;;5020529;28;20056;-84
2023/02/18 19:45:11;;;;;;;7.97;5.25;;;;;;;;;;5045880;28;20487;-85
2023/02/18 19:47:37;;;;;;;11.18;5.07;;;;;;;;;;5040293;28;20054;-84
2023/02/18 19:50:04;;;;;;;8.93;6.15;;;10.80;99.90;;;;;;5022508;28;20030;-83
2023/02/18 19:52:30;;;;;;;7.47;5.43;;;10.90;99.90;;;;;;5023570;28;20053;-85
2023/02/18 19:54:56;;;;;;;8.52;5.45;;;10.90;99.90;;;;;;5017083;28;20034;-81
2023/02/18 19:57:22;;;;;;;9.63;5.40;;;10.90;99.90;;;;;;5019821;28;20723;-81
2023/02/18 19:59:48;;;;;;;9.98;5.55;;;;;;;;;;5020224;28;20125;-83
2023/02/18 20:02:17;;;;;;;22.75;11.15;;;10.90;99.90;;;;;;5021519;28;20025;-84
2023/02/18 20:04:43;;;;;;;8.55;5.90;;;10.90;99.90;;;;;;5021829;28;20034;-85
2023/02/18 20:07:10;;;;;;;10.85;6.45;;;10.90;99.90;;;;;;5019340;28;20037;-85
2023/02/18 20:09:36;;;;;;;13.18;8.05;;;10.90;99.90;;;;;;5022686;28;20030;-86
2023/02/18 20:12:02;;;;;;;12.57;7.53;;;10.70;99.90;;;;;;5021052;28;20026;-83
2023/02/18 20:14:28;;;;;;;12.57;6.93;;;10.80;99.90;;;;;;5018257;28;20030;-80
2023/02/18 20:16:54;;;;;;;11.57;6.80;;;;;;;;;;5019521;28;20033;-86
2023/02/18 20:19:22;;;;;;;8.45;5.82;;;;;;;;;;5039015;28;20501;-84
2023/02/18 20:21:48;;;;;;;6.72;4.60;;;;;;;;;;5051046;28;20076;-84
2023/02/18 20:24:15;;;;;;;7.93;5.00;;;11.00;99.90;;;;;;5038715;28;20093;-82
2023/02/18 20:26:41;;;;;;;9.88;5.53;;;;;;;;;;5017829;28;20030;-82
2023/02/18 20:29:07;;;;;;;10.45;6.13;;;11.00;99.90;;;;;;5022839;28;20056;-84
2023/02/18 20:31:33;;;;;;;10.38;5.95;;;;;;;;;;5016645;28;20026;-83
2023/02/18 20:33:59;;;;;;;9.38;6.55;;;;;;;;;;5053351;28;20033;-87
2023/02/18 20:36:26;;;;;;;7.35;5.38;;;10.90;99.90;;;;;;5037274;28;20759;-82
2023/02/18 20:38:52;;;;;;;8.38;5.30;;;10.90;99.90;;;;;;5025662;28;20081;-84
2023/02/18 20:41:20;;;;;;;7.72;5.35;;;10.80;99.90;;;;;;5024851;28;20058;-84
2023/02/18 20:43:46;;;;;;;7.30;5.10;;;;;;;;;;5019968;28;20040;-84
2023/02/18 20:46:15;;;;;;;8.13;5.75;;;10.80;99.90;;;;;;5038011;28;20049;-84
2023/02/18 20:48:41;;;;;;;7.38;5.20;;;10.80;99.90;;;;;;5028361;28;20032;-83
2023/02/18 20:51:10;;;;;;;10.02;5.20;;;10.70;99.90;;;;;;5021048;28;20033;-85
2023/02/18 20:53:38;;;;;;;12.05;6.10;;;10.70;99.90;;;;;;5026754;28;20319;-85
2023/02/18 20:56:04;;;;;;;9.40;5.93;;;;;;;;;;5018930;28;20037;-86
2023/02/18 20:58:30;;;;;;;8.65;5.22;;;10.80;99.90;;;;;;5020955;28;20032;-84
2023/02/18 21:00:56;;;;;;;8.30;5.50;;;10.80;99.90;;;;;;5026326;28;20026;-85
2023/02/18 21:03:22;;;;;;;11.32;4.95;;;;;;;;;;5038269;28;20025;-85
2023/02/18 21:06:03;;;;;;;9.73;5.40;;;10.90;99.90;;;;;;5039716;28;20121;-85
2023/02/18 21:08:29;;;;;;;7.03;4.90;;;;;;;;;;5021291;28;20018;-81
2023/02/18 21:10:56;;;;;;;8.77;4.97;;;10.70;99.90;;;;;;5036260;28;20034;-83
2023/02/18 21:13:23;;;;;;;6.97;4.72;;;10.70;99.90;;;;;;5020290;28;20394;-82
2023/02/18 21:15:49;;;;;;;9.18;4.82;;;10.60;99.90;;;;;;5019424;28;20490;-83
2023/02/18 21:18:16;;;;;;;10.10;5.25;;;10.50;99.90;;;;;;5029444;28;20072;-85
2023/02/18 21:20:42;;;;;;;7.43;5.00;;;10.50;99.90;;;;;;5017820;28;20095;-82
2023/02/18 21:23:09;;;;;;;10.23;5.05;;;;;;;;;;5023000;28;20113;-82
2023/02/18 21:25:35;;;;;;;9.98;4.93;;;10.40;99.90;;;;;;5019813;28;20034;-82
2023/02/18 21:28:01;;;;;;;8.65;4.60;;;;;;;;;;5019977;28;20034;-85
2023/02/18 21:30:28;;;;;;;7.18;4.90;;;;;;;;;;5035035;28;20153;-81
2023/02/18 21:32:57;;;;;;;7.03;4.85;;;10.40;99.90;;;;;;5044116;28;20033;-81
2023/02/18 21:35:24;;;;;;;8.65;4.93;;;10.40;99.90;;;;;;5020245;28;20030;-85
2023/02/18 21:37:50;;;;;;;11.13;6.50;;;10.30;99.90;;;;;;5023510;28;20018;-80
2023/02/18 21:40:17;;;;;;;7.90;5.15;;;;;;;;;;5019547;28;20070;-87
2023/02/18 21:42:43;;;;;;;7.85;5.20;;;;;;;;;;5020306;28;20486;-84
2023/02/18 21:45:09;;;;;;;8.05;4.90;;;;;;;;;;5034525;28;20105;-85
2023/02/18 21:47:36;;;;;;;10.27;5.28;;;10.40;99.90;;;;;;5021414;28;20387;-83
2023/02/18 21:50:03;;;;;;;7.60;4.13;;;10.40;99.90;;;;;;5019063;28;20036;-85
2023/02/18 21:52:31;;;;;;;7.18;3.92;;;10.40;99.90;;;;;;5020309;28;20044;-84
2023/02/18 21:54:57;;;;;;;5.75;4.10;;;10.30;99.90;;;;;;5018978;28;20029;-84
2023/02/18 21:57:23;;;;;;;8.30;4.07;;;;;;;;;;5020655;28;20025;-82
2023/02/18 21:59:49;;;;;;;7.28;4.32;;;10.40;99.90;;;;;;5035766;28;20399;-86
2023/02/18 22:02:23;;;;;;;6.78;3.63;;;10.40;99.90;;;;;;5019105;28;20018;-81
2023/02/18 22:04:50;;;;;;;6.32;4.00;;;10.90;99.90;;;;;;5008776;28;20041;-83
2023/02/18 22:07:17;;;;;;;6.38;4.03;;;10.30;99.90;;;;;;5011854;28;20030;-82
2023/02/18 22:09:43;;;;;;;6.70;3.80;;;;;;;;;;5012671;28;20022;-81
2023/02/18 22:12:10;;;;;;;5.55;4.20;;;;;;;;;;5032053;28;20112;-81
2023/02/18 22:14:36;;;;;;;9.43;4.00;;;;;;;;;;5015540;28;20080;-81
2023/02/18 22:17:03;;;;;;;7.30;3.72;;;;;;;;;;5027034;28;20041;-80
2023/02/18 22:19:29;;;;;;;6.45;3.65;;;;;;;;;;5030336;28;20022;-80
2023/02/18 22:21:55;;;;;;;6.93;4.45;;;;;;;;;;5020346;28;20379;-81
2023/02/18 22:24:21;;;;;;;6.43;3.50;;;;;;;;;;5022854;28;20526;-81
2023/02/18 22:26:47;;;;;;;7.20;4.00;;;;;;;;;;5011695;28;21786;-82
2023/02/18 22:29:15;;;;;;;11.48;4.30;;;10.40;99.90;;;;;;5019787;28;20058;-84
2023/02/18 22:31:41;;;;;;;6.15;3.88;;;;;;;;;;5039959;28;20457;-82
2023/02/18 22:34:07;;;;;;;6.55;3.97;;;10.30;99.90;;;;;;5032767;28;20057;-80
2023/02/18 22:36:37;;;;;;;5.93;3.67;;;;;;;;;;5014449;28;20102;-84
2023/02/18 22:39:03;;;;;;;8.55;4.57;;;;;;;;;;5042756;28;20352;-79
2023/02/18 22:41:31;;;;;;;10.25;4.95;;;10.20;99.90;;;;;;5034996;28;20022;-80
2023/02/18 22:44:02;;;;;;;7.70;4.30;;;10.10;99.90;;;;;;5043334;28;20034;-79
2023/02/18 22:46:31;;;;;;;9.65;4.32;;;10.50;99.90;;;;;;5018335;28;20498;-82
2023/02/18 22:48:58;;;;;;;9.43;4.82;;;10.10;99.90;;;;;;5013944;28;20038;-82
2023/02/18 22:51:30;;;;;;;5.88;4.45;;;10.10;99.90;;;;;;5038971;22;20122;-90
2023/02/18 22:53:57;;;;;;;13.45;5.93;;;10.10;99.90;;;;;;5038671;28;20041;-89
2023/02/18 22:56:24;;;;;;;9.10;5.28;;;10.10;99.90;;;;;;5027845;28;20428;-89
2023/02/18 22:58:51;;;;;;;7.25;4.43;;;;;;;;;;5038833;28;20030;-90
2023/02/18 23:03:52;;;;;;;9.48;4.68;;;;;;;;;;5060624;28;20053;-79
2023/02/18 23:06:19;;;;;;;8.55;4.60;;;;;;;;;;5063437;28;20079;-79
2023/02/18 23:08:45;;;;;;;7.40;4.18;;;;;;;;;;5062023;28;21529;-79
2023/02/18 23:11:16;;;;;;;8.65;4.38;;;;;;;;;;5058402;28;20505;-79
2023/02/18 23:13:43;;;;;;;7.03;4.30;;;;;;;;;;5095393;28;20116;-82
2023/02/18 23:17:11;;;;;;;6.30;3.95;;;;;;;;;;5076120;28;20024;-79
2023/02/18 23:19:18;;;;;;;8.63;3.65;;;;;;;;;;5072090;28;20036;-80
2023/02/18 23:21:47;;;;;;;11.40;4.75;;;;;;;;;;5079626;28;20527;-79
2023/02/18 23:24:16;;;;;;;7.60;4.40;;;;;;;;;;5083604;28;20050;-80
2023/02/18 23:26:42;;;;;;;5.47;3.80;;;;;;;;;;5077273;28;20044;-80
2023/02/18 23:29:09;;;;;;;7.53;4.18;;;;;;;;;;5072339;28;20086;-79
2023/02/18 23:31:55;;;;;;;10.18;4.97;;;;;;;;;;5081118;28;20032;-79
2023/02/18 23:34:21;;;;;;;6.68;3.92;;;;;;;;;;5085397;28;20048;-78
2023/02/18 23:36:50;;;;;;;9.57;4.03;;;;;;;;;;5084537;28;20412;-79